createdAt,value
2019-05-16T00:00:41.565Z,99822.67
2019-05-16T00:03:11.703Z,99821.05
2019-05-16T00:05:50.453Z,99818.63
2019-05-16T00:08:13.561Z,99814.41
2019-05-16T00:10:43.463Z,99816.56
2019-05-16T00:13:13.864Z,99806.49
2019-05-16T00:15:44.909Z,99812.05
2019-05-16T00:18:17.724Z,99807.23
2019-05-16T00:20:49.249Z,99800.33
2019-05-16T00:23:19.424Z,99805.18
2019-05-16T00:25:49.328Z,99800.46
2019-05-16T00:28:19.644Z,99800.77
2019-05-16T00:30:49.513Z,99797.56
2019-05-16T00:33:19.785Z,99796.45
2019-05-16T00:36:02.236Z,99792.81
2019-05-16T00:38:22.354Z,99791.67
2019-05-16T00:40:52.740Z,99787.84
2019-05-16T00:43:22.739Z,99787.47
2019-05-16T00:45:52.749Z,99786.15
2019-05-16T00:48:22.723Z,99784.84
2019-05-16T00:50:53.077Z,99774.97
2019-05-16T00:53:23.197Z,99776.92
2019-05-16T00:55:54.457Z,99774.67
2019-05-16T00:58:25.657Z,99772.42
2019-05-16T01:00:55.638Z,99679.45
2019-05-16T01:03:25.475Z,99774.67
2019-05-16T01:05:58.311Z,99773.45
2019-05-16T01:08:28.778Z,99769.09
2019-05-16T01:10:59.253Z,99764.47
2019-05-16T01:13:29.641Z,99761.34
2019-05-16T01:16:00.410Z,99759.29
2019-05-16T01:18:31.525Z,99759.02
2019-05-16T01:21:02.320Z,99758.28
2019-05-16T01:23:32.998Z,99756.67
2019-05-16T01:26:04.298Z,99750.03
2019-05-16T01:28:37.923Z,99753.16
2019-05-16T01:31:08.681Z,99756.19
2019-05-16T01:33:38.786Z,99748.25
2019-05-16T01:36:09.233Z,99742.59
2019-05-16T01:38:39.916Z,99743.50
2019-05-16T01:41:09.984Z,99738.38
2019-05-16T01:43:40.034Z,99729.93
2019-05-16T01:46:10.095Z,99725.48
2019-05-16T01:48:40.050Z,99721.98
2019-05-16T01:51:10.092Z,99724.41
2019-05-16T01:53:40.489Z,99725.31
2019-05-16T01:56:11.749Z,99716.03
2019-05-16T01:58:44.014Z,99717.64
2019-05-16T02:01:16.578Z,99713.91
2019-05-16T02:03:48.199Z,99714.01
2019-05-16T02:06:18.657Z,99711.84
2019-05-16T02:08:48.916Z,99715.38
2019-05-16T02:11:18.831Z,99707.61
2019-05-16T02:13:48.921Z,99709.49
2019-05-16T02:16:19.049Z,99707.10
2019-05-16T02:18:49.042Z,99701.42
2019-05-16T02:21:19.321Z,99700.31
2019-05-16T02:23:51.652Z,99695.19
2019-05-16T02:26:22.265Z,99695.02
2019-05-16T02:28:52.650Z,99691.59
2019-05-16T02:31:23.068Z,99690.86
2019-05-16T02:33:53.378Z,99691.90
2019-05-16T02:36:23.266Z,99691.58
2019-05-16T02:38:55.607Z,99688.83
2019-05-16T02:41:25.015Z,99681.69
2019-05-16T02:43:54.987Z,99691.09
2019-05-16T02:46:25.156Z,99686.93
2019-05-16T02:48:56.156Z,99683.00
2019-05-16T02:51:26.974Z,99682.22
2019-05-16T02:53:56.994Z,99681.11
2019-05-16T02:56:27.340Z,99678.79
2019-05-16T02:59:01.415Z,99676.69
2019-05-16T03:01:31.715Z,99675.69
2019-05-16T03:04:01.934Z,99680.52
2019-05-16T03:06:32.803Z,99667.89
2019-05-16T03:09:06.403Z,99668.52
2019-05-16T03:11:37.143Z,99667.50
2019-05-16T03:14:07.521Z,99662.25
2019-05-16T03:16:41.800Z,99662.94
2019-05-16T03:19:14.488Z,99663.86
2019-05-16T03:21:45.186Z,99658.39
2019-05-16T03:24:15.628Z,99654.16
2019-05-16T03:26:45.795Z,99655.47
2019-05-16T03:29:16.408Z,99647.55
2019-05-16T03:31:46.619Z,99646.54
2019-05-16T03:34:24.171Z,99654.28
2019-05-16T03:36:54.493Z,99647.33
2019-05-16T03:39:21.416Z,99648.71
2019-05-16T03:41:54.558Z,99643.97
2019-05-16T03:44:24.636Z,99643.06
2019-05-16T03:46:54.812Z,99634.80
2019-05-16T03:49:25.786Z,99634.27
2019-05-16T03:51:55.796Z,99633.95
2019-05-16T03:54:25.884Z,99633.15
2019-05-16T03:56:55.890Z,99634.98
2019-05-16T03:59:25.764Z,99630.55
2019-05-16T04:01:55.747Z,99635.57
2019-05-16T04:04:25.721Z,99629.22
2019-05-16T04:06:55.734Z,99636.36
2019-05-16T04:09:25.784Z,99630.70
2019-05-16T04:11:56.195Z,99639.08
2019-05-16T04:14:30.906Z,99630.13
2019-05-16T04:17:01.841Z,99625.31
2019-05-16T04:19:33.429Z,99624.66
2019-05-16T04:22:04.602Z,99625.27
2019-05-16T04:24:34.857Z,99620.30
2019-05-16T04:27:04.772Z,99615.13
2019-05-16T04:29:35.125Z,99617.72
2019-05-16T04:32:11.042Z,99526.06
2019-05-16T04:34:44.516Z,99614.00
2019-05-16T04:37:14.594Z,99613.73
2019-05-16T04:39:44.730Z,99609.12
2019-05-16T04:42:14.958Z,99618.70
2019-05-16T04:44:45.193Z,99605.92
2019-05-16T04:47:16.353Z,99602.53
2019-05-16T04:49:46.359Z,99599.77
2019-05-16T04:52:16.278Z,99599.16
2019-05-16T04:54:46.370Z,99601.78
2019-05-16T04:57:16.416Z,99590.52
2019-05-16T04:59:46.707Z,99591.80
2019-05-16T05:02:16.703Z,99588.42
2019-05-16T05:04:46.880Z,99580.30
2019-05-16T05:07:20.370Z,99579.76
2019-05-16T05:09:51.331Z,99573.35
2019-05-16T05:12:22.213Z,99578.05
2019-05-16T05:14:52.248Z,99574.11
2019-05-16T05:17:23.396Z,99572.80
2019-05-16T05:19:53.503Z,99569.52
2019-05-16T05:22:25.162Z,99564.81
2019-05-16T05:25:00.006Z,99562.49
2019-05-16T05:27:33.886Z,99563.12
2019-05-16T05:30:10.505Z,99553.20
2019-05-16T05:32:41.600Z,99459.62
2019-05-16T05:35:13.316Z,99548.03
2019-05-16T05:37:52.641Z,99544.31
2019-05-16T05:40:26.781Z,99542.34
2019-05-16T05:42:59.857Z,99537.78
2019-05-16T05:45:33.581Z,99539.69
2019-05-16T05:48:04.096Z,99541.17
2019-05-16T05:50:35.656Z,99542.17
2019-05-16T05:53:06.276Z,99545.48
2019-05-16T05:55:37.140Z,99539.65
2019-05-16T05:58:10.083Z,99546.44
2019-05-16T06:00:40.675Z,99544.27
2019-05-16T06:03:10.831Z,99548.01
2019-05-16T06:05:41.343Z,99543.77
2019-05-16T06:08:11.589Z,99545.18
2019-05-16T06:10:41.593Z,99554.64
2019-05-16T06:13:12.372Z,99545.45
2019-05-16T06:15:42.556Z,99535.99
2019-05-16T06:18:12.940Z,99535.63
2019-05-16T06:20:43.038Z,99546.25
2019-05-16T06:23:13.086Z,99545.09
2019-05-16T06:25:43.054Z,99534.58
2019-05-16T06:28:13.075Z,99542.31
2019-05-16T06:30:43.308Z,99537.36
2019-05-16T06:33:13.583Z,99468.83
2019-05-16T06:35:45.391Z,99535.72
2019-05-16T06:38:15.392Z,99540.44
2019-05-16T06:40:45.556Z,99536.55
2019-05-16T06:43:15.566Z,99534.52
2019-05-16T06:45:45.663Z,99533.25
2019-05-16T06:48:15.928Z,99532.13
2019-05-16T06:50:45.952Z,99529.56
2019-05-16T06:53:23.215Z,99522.09
2019-05-16T06:55:54.732Z,99523.43
2019-05-16T06:58:24.708Z,99519.65
2019-05-16T07:00:54.884Z,99519.82
2019-05-16T07:03:25.062Z,99521.08
2019-05-16T07:06:00.583Z,99520.11
2019-05-16T07:08:31.154Z,99516.45
2019-05-16T07:11:01.526Z,99513.75
2019-05-16T07:13:32.348Z,99511.13
2019-05-16T07:16:03.039Z,99505.53
2019-05-16T07:18:32.889Z,99513.55
2019-05-16T07:21:03.245Z,99512.51
2019-05-16T07:23:33.215Z,99508.34
2019-05-16T07:26:03.815Z,99511.22
2019-05-16T07:28:45.317Z,99510.66
2019-05-16T07:31:18.752Z,99505.27
2019-05-16T07:33:50.043Z,99508.30
2019-05-16T07:36:20.916Z,99504.98
2019-05-16T07:38:51.053Z,99510.77
2019-05-16T07:41:21.264Z,99499.33
2019-05-16T07:43:51.589Z,99504.74
2019-05-16T07:46:21.769Z,99502.19
2019-05-16T07:48:52.250Z,99407.25
2019-05-16T07:51:23.686Z,99502.92
2019-05-16T07:53:53.817Z,99491.24
2019-05-16T07:56:23.869Z,99492.43
2019-05-16T07:58:54.117Z,99496.05
2019-05-16T08:01:24.513Z,99484.34
2019-05-16T08:03:54.657Z,99480.58
2019-05-16T08:06:24.698Z,99472.44
2019-05-16T08:08:54.932Z,99469.46
2019-05-16T08:11:25.379Z,99470.89
2019-05-16T08:13:55.256Z,99470.44
2019-05-16T08:16:25.817Z,99465.94
2019-05-16T08:18:55.960Z,99461.64
2019-05-16T08:21:30.216Z,99456.78
2019-05-16T08:24:07.187Z,99462.39
2019-05-16T08:26:38.823Z,99458.80
2019-05-16T08:29:07.893Z,99451.82
2019-05-16T08:31:38.030Z,99450.59
2019-05-16T08:34:12.250Z,99449.89
2019-05-16T08:36:42.236Z,99376.92
2019-05-16T08:39:14.089Z,99452.78
2019-05-16T08:41:44.779Z,99434.56
2019-05-16T08:44:16.609Z,99435.42
2019-05-16T08:49:24.820Z,99437.31
2019-05-16T08:52:01.522Z,99292.73
2019-05-16T08:54:32.877Z,99431.05
2019-05-16T08:57:22.964Z,99433.78
2019-05-16T08:59:36.079Z,99421.28
2019-05-16T09:02:12.020Z,99429.95
2019-05-16T09:04:44.161Z,99428.05
2019-05-16T09:07:12.720Z,99298.65
2019-05-16T09:09:51.148Z,99421.72
2019-05-16T09:10:31.813Z,99438.67
2019-05-16T09:12:18.056Z,99422.68
2019-05-16T09:14:48.895Z,99421.70
2019-05-16T09:17:19.119Z,99421.92
2019-05-16T09:19:49.400Z,99421.34
2019-05-16T09:22:19.680Z,99408.71
2019-05-16T09:24:50.882Z,99411.84
2019-05-16T09:27:21.187Z,99415.42
2019-05-16T09:32:21.649Z,99406.67
2019-05-16T09:34:52.033Z,99407.70
2019-05-16T09:37:22.440Z,99405.28
2019-05-16T09:39:52.647Z,99413.91
2019-05-16T09:42:23.194Z,99420.27
2019-05-16T09:44:53.906Z,99320.56
2019-05-16T09:47:28.196Z,99410.98
2019-05-16T09:50:00.949Z,99407.25
2019-05-16T09:52:32.511Z,99405.95
2019-05-16T09:55:04.162Z,99407.27
2019-05-16T09:57:37.328Z,99412.80
2019-05-16T10:00:10.044Z,99416.89
2019-05-16T10:02:41.133Z,99418.82
2019-05-16T10:05:13.528Z,99418.22
2019-05-16T10:07:47.053Z,99416.16
2019-05-16T10:10:17.296Z,99414.84
2019-05-16T10:12:47.950Z,99409.05
2019-05-16T10:15:19.534Z,99409.34
2019-05-16T10:17:49.682Z,99400.83
2019-05-16T10:20:19.764Z,99389.22
2019-05-16T10:22:50.571Z,99379.25
2019-05-16T10:25:21.495Z,99389.31
2019-05-16T10:27:52.247Z,99354.19
2019-05-16T10:30:26.931Z,99403.59
2019-05-16T10:33:00.921Z,99407.31
2019-05-16T10:35:30.298Z,99401.34
2019-05-16T10:38:00.820Z,99386.83
2019-05-16T10:40:32.473Z,99368.59
2019-05-16T10:43:06.893Z,99380.56
2019-05-16T10:45:37.752Z,99381.72
2019-05-16T10:48:08.282Z,99375.41
2019-05-16T10:50:38.824Z,99375.55
2019-05-16T10:53:32.623Z,99371.45
2019-05-16T10:55:41.235Z,99374.13
2019-05-16T10:58:11.570Z,99371.08
2019-05-16T11:01:09.941Z,99363.41
2019-05-16T11:03:16.967Z,99364.52
2019-05-16T11:06:02.958Z,99362.73
2019-05-16T11:08:22.132Z,99361.00
2019-05-16T11:10:53.867Z,99364.04
2019-05-16T11:13:24.139Z,99356.84
2019-05-16T11:15:55.150Z,99351.29
2019-05-16T11:18:27.289Z,99352.20
2019-05-16T11:20:58.512Z,99354.34
2019-05-16T11:23:31.489Z,99351.56
2019-05-16T11:26:01.072Z,99345.89
2019-05-16T11:28:31.870Z,99340.90
2019-05-16T11:31:03.929Z,99347.13
2019-05-16T11:33:36.837Z,99340.16
2019-05-16T11:36:08.181Z,99342.56
2019-05-16T11:38:39.642Z,99335.94
2019-05-16T11:41:10.849Z,99328.77
2019-05-16T11:43:44.208Z,99327.73
2019-05-16T11:46:14.432Z,99326.03
2019-05-16T11:48:44.893Z,99317.84
2019-05-16T11:51:17.442Z,99324.45
2019-05-16T11:53:47.673Z,99318.44
2019-05-16T11:56:18.157Z,99229.45
2019-05-16T11:58:53.430Z,99313.73
2019-05-16T12:01:27.470Z,99311.76
2019-05-16T12:04:03.507Z,99313.81
2019-05-16T12:06:33.684Z,99314.55
2019-05-16T12:09:06.794Z,99321.19
2019-05-16T12:11:38.464Z,99313.99
2019-05-16T12:14:13.847Z,99313.34
2019-05-16T12:16:47.234Z,99309.98
2019-05-16T12:19:18.127Z,99311.36
2019-05-16T12:21:49.244Z,99308.98
2019-05-16T12:24:32.323Z,99305.52
2019-05-16T12:26:56.875Z,99310.67
2019-05-16T12:29:28.794Z,99309.47
2019-05-16T12:32:07.182Z,99315.31
2019-05-16T12:34:46.334Z,99300.55
2019-05-16T12:37:28.909Z,99306.60
2019-05-16T12:40:02.063Z,99305.61
2019-05-16T12:42:33.169Z,99296.64
2019-05-16T12:45:08.428Z,99207.70
2019-05-16T12:47:47.336Z,99293.17
2019-05-16T12:50:18.167Z,99289.41
2019-05-16T12:52:50.023Z,99293.98
2019-05-16T12:55:20.252Z,99290.44
2019-05-16T12:57:58.718Z,99293.98
2019-05-16T13:00:23.079Z,99286.49
2019-05-16T13:02:53.901Z,99284.67
2019-05-16T13:05:26.924Z,99280.18
2019-05-16T13:07:56.630Z,99278.31
2019-05-16T13:10:27.163Z,99276.21
2019-05-16T13:12:58.226Z,99274.34
2019-05-16T13:15:28.661Z,99269.76
2019-05-16T13:17:58.813Z,99265.20
2019-05-16T13:20:46.875Z,99261.11
2019-05-16T13:23:26.763Z,99257.83
2019-05-16T13:25:57.555Z,99259.95
2019-05-16T13:28:31.534Z,99257.38
2019-05-16T13:31:01.874Z,99256.74
2019-05-16T13:33:36.680Z,99254.42
2019-05-16T13:36:07.505Z,99251.63
2019-05-16T13:38:38.748Z,99249.00
2019-05-16T13:41:08.853Z,99244.98
2019-05-16T13:43:38.930Z,99240.72
2019-05-16T13:46:09.297Z,99240.65
2019-05-16T13:48:39.344Z,99240.59
2019-05-16T13:51:15.279Z,99238.34
2019-05-16T13:56:13.356Z,99235.08
2019-05-16T13:58:42.479Z,99237.87
2019-05-16T14:01:12.645Z,99232.31
2019-05-16T14:03:42.861Z,99229.62
2019-05-16T14:06:12.475Z,99221.27
2019-05-16T14:08:43.068Z,99220.89
2019-05-16T14:11:13.278Z,99216.27
2019-05-16T14:13:43.701Z,99216.70
2019-05-16T14:16:14.747Z,99224.20
2019-05-16T14:18:48.104Z,99214.83
2019-05-16T14:21:18.979Z,99221.59
2019-05-16T14:23:53.918Z,99227.20
2019-05-16T14:26:24.491Z,99222.47
2019-05-16T14:28:57.347Z,99216.55
2019-05-16T14:31:26.921Z,99216.52
2019-05-16T14:33:57.244Z,99220.50
2019-05-16T14:36:28.169Z,99220.79
2019-05-16T14:38:58.429Z,99222.06
2019-05-16T14:41:29.053Z,99214.40
2019-05-16T14:43:59.805Z,99213.82
2019-05-16T14:46:30.294Z,99205.79
2019-05-16T14:49:07.822Z,99203.53
2019-05-16T14:51:39.126Z,99205.09
2019-05-16T14:54:11.464Z,99204.12
2019-05-16T14:56:47.363Z,99205.14
2019-05-16T14:59:17.664Z,99206.05
2019-05-16T15:01:52.527Z,99196.11
2019-05-16T15:04:30.071Z,99200.13
2019-05-16T15:07:00.658Z,99198.11
2019-05-16T15:09:31.414Z,99198.05
2019-05-16T15:12:06.703Z,99199.66
2019-05-16T15:14:37.497Z,99197.50
2019-05-16T15:17:07.831Z,99194.48
2019-05-16T15:19:39.824Z,99198.53
2019-05-16T15:22:10.478Z,99196.34
2019-05-16T15:24:40.949Z,99187.33
2019-05-16T15:27:12.207Z,99190.98
2019-05-16T15:29:42.829Z,99193.38
2019-05-16T15:32:17.706Z,99105.92
2019-05-16T15:34:48.949Z,99190.50
2019-05-16T15:37:21.214Z,99190.75
2019-05-16T15:39:54.178Z,99186.28
2019-05-16T15:42:24.312Z,99179.13
2019-05-16T15:44:55.225Z,99185.19
2019-05-16T15:47:28.476Z,99186.14
2019-05-16T15:49:59.982Z,99181.31
2019-05-16T15:53:03.068Z,99182.05
2019-05-16T15:55:36.494Z,99180.81
2019-05-16T15:58:10.327Z,99181.34
2019-05-16T16:00:47.449Z,99181.81
2019-05-16T16:03:17.609Z,99182.78
2019-05-16T16:05:48.052Z,99180.30
2019-05-16T16:08:18.799Z,99176.99
2019-05-16T16:10:49.293Z,99177.87
2019-05-16T16:13:20.131Z,99171.48
2019-05-16T16:15:54.483Z,99168.89
2019-05-16T16:18:23.151Z,99169.07
2019-05-16T16:20:53.258Z,99171.73
2019-05-16T16:23:23.664Z,99160.80
2019-05-16T16:26:00.200Z,99160.47
2019-05-16T16:28:31.307Z,99163.94
2019-05-16T16:31:01.798Z,99157.95
2019-05-16T16:33:37.437Z,99155.89
2019-05-16T16:36:08.378Z,99154.14
2019-05-16T16:38:39.865Z,99155.42
2019-05-16T16:41:10.961Z,99151.27
2019-05-16T16:43:42.161Z,99151.55
2019-05-16T16:46:13.838Z,99150.24
2019-05-16T16:48:44.690Z,99149.77
2019-05-16T16:51:18.135Z,99148.02
2019-05-16T16:53:53.183Z,99152.66
2019-05-16T16:56:28.801Z,99146.20
2019-05-16T16:59:01.881Z,99154.52
2019-05-16T17:01:37.512Z,99155.00
2019-05-16T17:04:08.451Z,99153.50
2019-05-16T17:06:38.853Z,99151.16
2019-05-16T17:09:11.203Z,99156.20
2019-05-16T17:11:43.658Z,99147.52
2019-05-16T17:14:17.527Z,99152.30
2019-05-16T17:16:57.548Z,99152.30
2019-05-16T17:19:31.248Z,99149.63
2019-05-16T17:22:16.264Z,99148.13
2019-05-16T17:24:39.782Z,99154.37
2019-05-16T17:27:11.426Z,99152.19
2019-05-16T17:29:43.296Z,99148.47
2019-05-16T17:32:18.578Z,99151.34
2019-05-16T17:34:49.752Z,99151.56
2019-05-16T17:37:27.277Z,99151.09
2019-05-16T17:39:57.319Z,99151.05
2019-05-16T17:42:35.222Z,99145.69
2019-05-16T17:45:09.080Z,99150.17
2019-05-16T17:47:40.013Z,99145.10
2019-05-16T17:50:11.424Z,99148.23
2019-05-16T17:52:42.236Z,99146.08
2019-05-16T17:55:17.172Z,99141.85
2019-05-16T17:57:47.715Z,99145.83
2019-05-16T18:00:25.613Z,99145.61
2019-05-16T18:02:56.913Z,99155.03
2019-05-16T18:05:27.701Z,99152.28
2019-05-16T18:08:00.278Z,99154.55
2019-05-16T18:10:31.156Z,99154.55
2019-05-16T18:13:07.434Z,99151.27
2019-05-16T18:15:37.440Z,99148.42
2019-05-16T18:18:08.421Z,99153.96
2019-05-16T18:20:38.742Z,99148.97
2019-05-16T18:23:10.320Z,99150.87
2019-05-16T18:25:42.686Z,99150.58
2019-05-16T18:28:17.784Z,99143.20
2019-05-16T18:30:51.953Z,99150.24
2019-05-16T18:33:27.543Z,99151.05
2019-05-16T18:36:00.101Z,99150.09
2019-05-16T18:38:31.138Z,99149.73
2019-05-16T18:41:01.350Z,99148.01
2019-05-16T18:43:32.982Z,99146.87
2019-05-16T18:46:07.158Z,99147.34
2019-05-16T18:48:37.063Z,99142.52
2019-05-16T18:51:07.235Z,99144.73
2019-05-16T18:53:37.633Z,99147.66
2019-05-16T18:56:08.054Z,99143.64
2019-05-16T18:58:38.259Z,99141.31
2019-05-16T19:01:08.514Z,99145.46
2019-05-16T19:03:38.851Z,99140.58
2019-05-16T19:06:09.310Z,99144.15
2019-05-16T19:08:39.891Z,99147.58
2019-05-16T19:11:10.167Z,99139.54
2019-05-16T19:13:40.583Z,99147.63
2019-05-16T19:16:11.320Z,99150.17
2019-05-16T19:18:41.654Z,99147.84
2019-05-16T19:21:12.546Z,99151.44
2019-05-16T19:23:43.048Z,99152.00
2019-05-16T19:26:13.449Z,99147.63
2019-05-16T19:28:46.583Z,99143.61
2019-05-16T19:31:17.292Z,99139.17
2019-05-16T19:33:48.835Z,99145.09
2019-05-16T19:36:19.602Z,99147.00
2019-05-16T19:38:50.049Z,99144.22
2019-05-16T19:41:20.112Z,99148.86
2019-05-16T19:43:50.112Z,99149.38
2019-05-16T19:46:23.515Z,99145.39
2019-05-16T19:48:53.138Z,99149.16
2019-05-16T19:51:26.784Z,99143.32
2019-05-16T19:53:56.721Z,99142.01
2019-05-16T19:56:27.072Z,99056.02
2019-05-16T19:58:57.287Z,99139.77
2019-05-16T20:01:27.809Z,99138.32
2019-05-16T20:03:58.141Z,99139.38
2019-05-16T20:06:28.130Z,99143.61
2019-05-16T20:08:58.495Z,99138.61
2019-05-16T20:11:29.233Z,99139.13
2019-05-16T20:13:59.615Z,99132.31
2019-05-16T20:16:33.870Z,99132.17
2019-05-16T20:19:05.256Z,99126.97
2019-05-16T20:21:36.920Z,99130.69
2019-05-16T20:24:07.567Z,99127.77
2019-05-16T20:26:38.054Z,99129.89
2019-05-16T20:29:08.334Z,99125.14
2019-05-16T20:31:38.250Z,99123.78
2019-05-16T20:34:09.465Z,99118.58
2019-05-16T20:36:39.427Z,99120.66
2019-05-16T20:39:09.716Z,99117.73
2019-05-16T20:41:39.959Z,99121.38
2019-05-16T20:44:11.086Z,99124.30
2019-05-16T20:46:42.875Z,99122.01
2019-05-16T20:49:13.235Z,99122.01
2019-05-16T20:51:43.251Z,99125.66
2019-05-16T20:54:13.249Z,99122.19
2019-05-16T20:56:43.296Z,99124.52
2019-05-16T20:59:14.537Z,99119.99
2019-05-16T21:01:46.494Z,99120.09
2019-05-16T21:04:17.271Z,99112.68
2019-05-16T21:06:57.483Z,99111.16
2019-05-16T21:09:20.273Z,99115.01
2019-05-16T21:11:50.371Z,99110.34
2019-05-16T21:14:20.312Z,99110.64
2019-05-16T21:16:50.570Z,99114.28
2019-05-16T21:19:20.844Z,99023.89
2019-05-16T21:21:51.149Z,99113.02
2019-05-16T21:24:22.331Z,99108.95
2019-05-16T21:26:54.831Z,99103.92
2019-05-16T21:29:27.516Z,99104.52
2019-05-16T21:31:57.361Z,99108.23
2019-05-16T21:34:27.386Z,99100.14
2019-05-16T21:37:11.003Z,99094.77
2019-05-16T21:39:29.506Z,99097.25
2019-05-16T21:41:59.527Z,99094.33
2019-05-16T21:44:29.482Z,99091.92
2019-05-16T21:47:00.109Z,99092.44
2019-05-16T21:49:30.109Z,99092.39
2019-05-16T21:52:00.169Z,99089.77
2019-05-16T21:54:30.137Z,99090.83
2019-05-16T21:56:59.981Z,99088.89
2019-05-16T21:59:30.112Z,99088.59
2019-05-16T22:02:00.067Z,99086.22
2019-05-16T22:04:29.935Z,99083.91
2019-05-16T22:06:59.929Z,99071.69
2019-05-16T22:09:30.194Z,99079.61
2019-05-16T22:12:00.542Z,99079.70
2019-05-16T22:14:36.862Z,99076.41
2019-05-16T22:17:07.730Z,99081.39
2019-05-16T22:19:37.823Z,99079.91
2019-05-16T22:22:07.682Z,99085.45
2019-05-16T22:24:37.645Z,99085.50
2019-05-16T22:27:07.669Z,99079.02
2019-05-16T22:29:37.741Z,99082.95
2019-05-16T22:32:09.290Z,99077.20
2019-05-16T22:34:39.481Z,99085.28
2019-05-16T22:37:09.589Z,99076.61
2019-05-16T22:39:39.523Z,99066.92
2019-05-16T22:42:09.546Z,99066.70
2019-05-16T22:44:39.507Z,99064.94
2019-05-16T22:47:09.432Z,99060.20
2019-05-16T22:49:39.309Z,99064.37
2019-05-16T22:52:09.324Z,99065.44
2019-05-16T22:54:39.490Z,99063.87
2019-05-16T22:57:09.384Z,99062.27
2019-05-16T22:59:39.395Z,99057.02
2019-05-16T23:02:11.880Z,99057.02
2019-05-16T23:04:41.812Z,99062.27
2019-05-16T23:07:11.702Z,99054.61
2019-05-16T23:09:42.204Z,99060.37
2019-05-16T23:12:12.094Z,99048.34
2019-05-16T23:14:42.135Z,99048.13
2019-05-16T23:17:12.023Z,99041.57
2019-05-16T23:19:42.004Z,99043.15
2019-05-16T23:22:12.051Z,99050.88
2019-05-16T23:24:42.174Z,99045.77
2019-05-16T23:27:12.861Z,99042.59
2019-05-16T23:29:42.912Z,99042.63
2019-05-16T23:32:12.818Z,99043.83
2019-05-16T23:34:42.956Z,99040.41
2019-05-16T23:37:12.816Z,99038.80
2019-05-16T23:39:42.860Z,99033.43
2019-05-16T23:42:13.138Z,99028.36
2019-05-16T23:44:43.484Z,99030.98
2019-05-16T23:47:13.390Z,99026.07
2019-05-16T23:49:43.323Z,99018.20
2019-05-16T23:52:13.378Z,99014.52
2019-05-16T23:54:43.790Z,99018.67
2019-05-16T23:57:13.729Z,99018.71
2019-05-16T23:59:43.893Z,99013.13
